Aviation Digital Data Service (ADDS)

Output produced by TAFs form (1137 UTC 02 September 2014)
found at http://www.aviationweather.gov/adds/tafs/
 
KABE 021123Z 0212/0312 26007KT P6SM SCT060 
     TEMPO 0212/0214 3SM BR 
     FM021700 23010KT P6SM SCT050 BKN150 
     TEMPO 0221/0224 2SM TSRA BKN035CB 
     FM030000 23008KT P6SM VCSH BKN050 
     FM030400 28005KT P6SM FEW050 SCT250 
     FM030700 VRB03KT P6SM SCT150